createdAt,value
2023-06-19T00:01:01.875Z,23.86
2023-06-19T00:04:28.789Z,24.02
2023-06-19T00:07:37.301Z,24.04
2023-06-19T00:10:44.512Z,23.77
2023-06-19T00:14:11.695Z,23.46
2023-06-19T00:17:17.913Z,23.66
2023-06-19T00:20:47.407Z,23.65
2023-06-19T00:23:49.341Z,23.31
2023-06-19T00:26:51.493Z,23.27
2023-06-19T00:30:03.460Z,23.29
2023-06-19T00:40:13.431Z,23.31
2023-06-19T00:43:15.337Z,23.51
2023-06-19T00:46:18.190Z,23.65
2023-06-19T00:49:22.704Z,23.69
2023-06-19T00:52:24.610Z,23.71
2023-06-19T00:55:31.097Z,23.57
2023-06-19T00:58:34.716Z,23.42
2023-06-19T01:01:37.973Z,23.21
2023-06-19T01:05:06.584Z,23.24
2023-06-19T01:08:13.849Z,23.01
2023-06-19T01:11:26.572Z,22.86
2023-06-19T01:14:36.865Z,22.96
2023-06-19T01:17:38.802Z,22.95
2023-06-19T01:21:14.028Z,22.72
2023-06-19T01:24:17.424Z,22.82
2023-06-19T01:27:44.755Z,22.79
2023-06-19T01:31:12.672Z,22.79
2023-06-19T01:34:18.628Z,22.92
2023-06-19T01:37:48.734Z,22.92
2023-06-19T01:40:54.358Z,22.93
2023-06-19T01:44:22.524Z,22.90
2023-06-19T01:47:49.869Z,22.87
2023-06-19T01:50:52.266Z,22.80
2023-06-19T01:54:18.796Z,22.75
2023-06-19T01:57:47.848Z,22.68
2023-06-19T02:01:14.690Z,22.63
2023-06-19T02:04:17.072Z,22.58
2023-06-19T02:07:20.451Z,22.58
2023-06-19T02:10:24.198Z,22.58
2023-06-19T02:13:27.805Z,22.50
2023-06-19T02:16:29.786Z,22.41
2023-06-19T02:19:33.827Z,22.24
2023-06-19T02:22:37.233Z,22.53
2023-06-19T02:25:40.899Z,22.47
2023-06-19T02:28:46.123Z,22.49
2023-06-19T02:31:48.101Z,22.56
2023-06-19T02:34:49.994Z,22.53
2023-06-19T02:37:52.045Z,22.52
2023-06-19T02:40:55.827Z,22.32
2023-06-19T02:43:59.176Z,22.50
2023-06-19T02:47:01.100Z,22.65
2023-06-19T02:50:04.697Z,22.75
2023-06-19T02:53:07.254Z,22.78
2023-06-19T02:56:09.086Z,22.63
2023-06-19T02:59:12.220Z,22.75
2023-06-19T03:02:14.381Z,22.67
2023-06-19T03:05:18.137Z,22.70
2023-06-19T03:08:20.043Z,22.71
2023-06-19T03:11:22.142Z,22.78
2023-06-19T03:14:25.400Z,22.75
2023-06-19T03:17:56.302Z,22.70
2023-06-19T03:21:00.305Z,22.74
2023-06-19T03:27:32.719Z,22.66
2023-06-19T03:31:03.744Z,22.64
2023-06-19T03:34:07.420Z,22.56
2023-06-19T03:37:37.191Z,22.52
2023-06-19T03:40:41.468Z,22.55
2023-06-19T03:44:12.021Z,22.50
2023-06-19T03:47:15.441Z,22.46
2023-06-19T03:50:22.292Z,22.37
2023-06-19T03:53:50.619Z,22.29
2023-06-19T03:56:53.183Z,22.21
2023-06-19T03:59:55.726Z,22.19
2023-06-19T04:03:25.426Z,22.04
2023-06-19T04:06:27.417Z,21.91
2023-06-19T04:09:30.421Z,21.88
2023-06-19T04:12:58.170Z,21.83
2023-06-19T04:16:00.274Z,21.80
2023-06-19T04:19:07.199Z,21.67
2023-06-19T04:22:36.672Z,21.67
2023-06-19T04:25:38.771Z,21.62
2023-06-19T04:28:40.679Z,21.50
2023-06-19T04:31:43.084Z,21.48
2023-06-19T04:34:47.107Z,21.57
2023-06-19T04:37:49.997Z,21.57
2023-06-19T04:40:53.486Z,21.53
2023-06-19T04:43:56.563Z,21.57
2023-06-19T04:47:28.623Z,21.62
2023-06-19T04:50:37.657Z,21.63
2023-06-19T04:54:06.097Z,21.70
2023-06-19T04:57:11.643Z,21.80
2023-06-19T05:00:20.433Z,21.88
2023-06-19T05:03:48.222Z,21.82
2023-06-19T05:06:53.091Z,21.80
2023-06-19T05:10:23.992Z,21.79
2023-06-19T05:13:51.526Z,21.73
2023-06-19T05:16:54.490Z,21.74
2023-06-19T05:19:56.455Z,21.77
2023-06-19T05:23:01.419Z,21.73
2023-06-19T05:26:05.748Z,21.84
2023-06-19T05:29:57.343Z,21.84
2023-06-19T05:33:02.115Z,21.84
2023-06-19T05:36:31.051Z,21.85
2023-06-19T05:39:34.378Z,21.84
2023-06-19T05:42:36.535Z,21.96
2023-06-19T05:45:39.509Z,22.13
2023-06-19T05:49:06.001Z,22.09
2023-06-19T05:52:11.924Z,22.17
2023-06-19T05:55:41.554Z,22.26
2023-06-19T05:58:43.360Z,22.30
2023-06-19T06:02:13.911Z,22.32
2023-06-19T06:05:18.489Z,22.27
2023-06-19T06:08:20.312Z,22.33
2023-06-19T06:11:49.870Z,22.38
2023-06-19T06:14:52.681Z,22.65
2023-06-19T06:18:20.527Z,22.65
2023-06-19T06:21:23.011Z,22.64
2023-06-19T06:24:50.912Z,22.59
2023-06-19T06:27:54.189Z,22.67
2023-06-19T06:30:56.917Z,22.64
2023-06-19T06:39:02.687Z,22.74
2023-06-19T06:42:32.126Z,22.90
2023-06-19T06:45:41.678Z,23.10
2023-06-19T06:49:08.975Z,23.09
2023-06-19T06:52:10.979Z,23.15
2023-06-19T06:55:12.818Z,23.20
2023-06-19T06:58:21.624Z,23.22
2023-06-19T07:01:28.074Z,23.18
2023-06-19T07:04:30.667Z,23.42
2023-06-19T07:07:33.225Z,23.55
2023-06-19T07:10:36.796Z,23.57
2023-06-19T07:13:40.990Z,23.63
2023-06-19T07:16:48.340Z,23.56
2023-06-19T07:19:50.522Z,23.62
2023-06-19T07:22:53.836Z,23.84
2023-06-19T07:26:21.116Z,23.93
2023-06-19T07:29:23.203Z,23.89
2023-06-19T07:32:51.645Z,23.98
2023-06-19T07:35:53.459Z,23.98
2023-06-19T07:38:56.546Z,24.02
2023-06-19T07:41:58.468Z,23.93
2023-06-19T07:45:00.467Z,24.20
2023-06-19T07:48:29.451Z,24.58
2023-06-19T07:51:31.576Z,24.18
2023-06-19T07:54:35.475Z,24.34
2023-06-19T07:57:37.538Z,24.70
2023-06-19T08:01:05.169Z,24.63
2023-06-19T08:04:08.466Z,24.46
2023-06-19T08:07:10.322Z,24.48
2023-06-19T08:10:14.887Z,24.44
2023-06-19T08:13:19.392Z,24.46
2023-06-19T08:16:21.584Z,24.57
2023-06-19T08:19:50.860Z,24.60
2023-06-19T08:22:52.693Z,24.83
2023-06-19T08:25:54.654Z,24.82
2023-06-19T08:29:21.712Z,24.60
2023-06-19T08:32:23.889Z,24.78
2023-06-19T08:35:27.539Z,24.61
2023-06-19T08:38:29.375Z,24.75
2023-06-19T08:41:31.221Z,24.85
2023-06-19T08:44:59.267Z,24.89
2023-06-19T08:48:01.893Z,24.83
2023-06-19T08:51:06.570Z,24.89
2023-06-19T08:54:09.712Z,24.88
2023-06-19T08:57:14.941Z,24.84
2023-06-19T09:00:25.057Z,24.45
2023-06-19T09:03:27.043Z,24.83
2023-06-19T09:06:34.018Z,24.71
2023-06-19T09:09:37.966Z,24.51
2023-06-19T09:12:44.707Z,24.77
2023-06-19T09:15:49.028Z,24.76
2023-06-19T09:18:52.068Z,24.74
2023-06-19T09:22:03.412Z,24.80
2023-06-19T09:25:56.562Z,25.00
2023-06-19T09:28:58.984Z,24.74
2023-06-19T09:32:02.240Z,24.65
2023-06-19T09:35:24.261Z,24.62
2023-06-19T09:38:34.040Z,24.70
2023-06-19T09:41:38.752Z,24.82
2023-06-19T09:44:50.886Z,25.09
2023-06-19T09:51:32.200Z,24.86
2023-06-19T09:54:37.464Z,24.85
2023-06-19T09:57:40.052Z,24.81
2023-06-19T10:00:42.066Z,25.01
2023-06-19T10:03:44.942Z,24.90
2023-06-19T10:06:48.447Z,24.96
2023-06-19T10:09:59.257Z,25.55
2023-06-19T10:13:13.675Z,25.82
2023-06-19T10:16:27.918Z,25.98
2023-06-19T10:19:57.118Z,26.05
2023-06-19T10:23:21.041Z,25.98
2023-06-19T10:26:33.308Z,25.74
2023-06-19T10:29:46.832Z,25.52
2023-06-19T10:33:47.146Z,25.52
2023-06-19T10:36:48.927Z,25.74
2023-06-19T10:39:50.906Z,26.01
2023-06-19T10:42:54.168Z,26.28
2023-06-19T10:45:56.020Z,26.42
2023-06-19T10:49:02.153Z,26.93
2023-06-19T10:52:04.812Z,26.76
2023-06-19T10:55:11.469Z,26.70
2023-06-19T10:58:16.442Z,26.74
2023-06-19T11:01:20.102Z,26.71
2023-06-19T11:04:26.691Z,26.51
2023-06-19T11:10:59.339Z,26.96
2023-06-19T11:14:03.153Z,27.00
2023-06-19T11:17:05.794Z,26.96
2023-06-19T11:20:14.859Z,27.03
2023-06-19T11:23:48.365Z,27.49
2023-06-19T11:26:52.374Z,27.53
2023-06-19T11:29:59.705Z,27.47
2023-06-19T11:33:26.661Z,27.40
2023-06-19T11:36:29.112Z,27.28
2023-06-19T11:39:58.041Z,27.10
2023-06-19T11:43:00.227Z,27.60
2023-06-19T11:46:32.120Z,27.61
2023-06-19T11:49:36.784Z,27.63
2023-06-19T11:52:39.221Z,27.33
2023-06-19T11:55:41.243Z,27.64
2023-06-19T11:58:45.997Z,28.02
2023-06-19T12:01:49.135Z,28.14
2023-06-19T12:04:54.936Z,28.28
2023-06-19T12:07:57.881Z,28.21
2023-06-19T12:11:02.487Z,28.61
2023-06-19T12:14:54.897Z,28.46
2023-06-19T12:18:01.331Z,28.20
2023-06-19T12:21:05.213Z,28.47
2023-06-19T12:24:08.239Z,28.51
2023-06-19T12:27:10.129Z,28.83
2023-06-19T12:30:13.042Z,28.75
2023-06-19T12:33:44.361Z,28.43
2023-06-19T12:36:46.329Z,28.01
2023-06-19T12:39:48.359Z,27.99
2023-06-19T12:42:51.527Z,27.99
2023-06-19T12:45:53.519Z,28.07
2023-06-19T12:48:56.783Z,28.39
2023-06-19T12:51:58.756Z,28.50
2023-06-19T12:55:03.910Z,28.51
2023-06-19T12:58:05.861Z,28.67
2023-06-19T13:01:07.946Z,28.73
2023-06-19T13:04:14.188Z,28.63
2023-06-19T13:07:16.826Z,28.57
2023-06-19T13:10:25.829Z,28.21
2023-06-19T13:13:53.166Z,29.06
2023-06-19T13:16:55.297Z,28.89
2023-06-19T13:19:58.746Z,29.40
2023-06-19T13:23:25.734Z,29.46
2023-06-19T13:26:28.080Z,28.58
2023-06-19T13:29:30.245Z,28.25
2023-06-19T13:32:32.350Z,28.40
2023-06-19T13:35:36.259Z,28.62
2023-06-19T13:38:38.329Z,29.63
2023-06-19T13:41:40.315Z,29.81
2023-06-19T13:44:45.623Z,30.20
2023-06-19T13:48:13.391Z,30.15
2023-06-19T13:51:17.351Z,30.38
2023-06-19T13:54:21.861Z,30.10
2023-06-19T13:57:23.990Z,30.29
2023-06-19T14:00:26.467Z,30.69
2023-06-19T14:03:53.524Z,29.68
2023-06-19T14:06:56.954Z,29.36
2023-06-19T14:09:59.121Z,29.36
2023-06-19T14:13:01.080Z,29.50
2023-06-19T14:16:28.120Z,29.33
2023-06-19T14:19:30.253Z,29.18
2023-06-19T14:22:58.528Z,29.03
2023-06-19T14:26:00.521Z,29.05
2023-06-19T14:29:02.562Z,29.21
2023-06-19T14:32:30.837Z,29.19
2023-06-19T14:35:57.479Z,29.21
2023-06-19T14:39:25.428Z,29.78
2023-06-19T14:42:55.888Z,30.38
2023-06-19T14:45:57.717Z,30.01
2023-06-19T14:49:25.039Z,30.03
2023-06-19T14:52:52.064Z,29.54
2023-06-19T14:56:20.514Z,29.74
2023-06-19T14:59:22.705Z,30.69
2023-06-19T15:02:25.374Z,30.20
2023-06-19T15:05:52.457Z,30.36
2023-06-19T15:08:54.417Z,30.48
2023-06-19T15:12:22.686Z,30.33
2023-06-19T15:15:24.864Z,29.48
2023-06-19T15:18:27.720Z,29.25
2023-06-19T15:21:29.903Z,29.62
2023-06-19T15:24:31.837Z,29.45
2023-06-19T15:27:35.231Z,29.42
2023-06-19T15:30:37.126Z,29.63
2023-06-19T15:33:39.076Z,29.63
2023-06-19T15:36:40.972Z,29.52
2023-06-19T15:39:43.135Z,29.57
2023-06-19T15:42:46.751Z,29.66
2023-06-19T15:45:48.598Z,29.48
2023-06-19T15:48:51.645Z,29.63
2023-06-19T15:51:53.565Z,29.79
2023-06-19T15:54:55.472Z,29.61
2023-06-19T15:58:00.458Z,30.01
2023-06-19T16:01:28.005Z,29.80
2023-06-19T16:04:30.168Z,29.70
2023-06-19T16:08:00.299Z,29.44
2023-06-19T16:11:04.348Z,29.67
2023-06-19T16:14:07.775Z,29.98
2023-06-19T16:20:33.147Z,29.75
2023-06-19T16:23:37.520Z,29.44
2023-06-19T16:26:41.735Z,29.57
2023-06-19T16:29:45.140Z,29.45
2023-06-19T16:32:47.192Z,29.74
2023-06-19T16:35:49.035Z,29.99
2023-06-19T16:39:16.074Z,29.63
2023-06-19T16:42:20.608Z,29.48
2023-06-19T16:45:27.475Z,29.79
2023-06-19T16:55:25.507Z,29.75
2023-06-19T16:58:53.101Z,29.64
2023-06-19T17:01:56.675Z,29.21
2023-06-19T17:05:01.609Z,28.93
2023-06-19T17:08:04.537Z,28.94
2023-06-19T17:11:07.068Z,28.68
2023-06-19T17:14:08.951Z,28.78
2023-06-19T17:17:37.630Z,28.39
2023-06-19T17:21:04.732Z,28.09
2023-06-19T17:24:32.921Z,28.36
2023-06-19T17:27:34.908Z,28.56
2023-06-19T17:30:38.734Z,28.47
2023-06-19T17:34:06.678Z,28.57
2023-06-19T17:37:08.514Z,28.73
2023-06-19T17:40:35.924Z,28.61
2023-06-19T17:43:37.860Z,28.37
2023-06-19T17:47:05.402Z,28.44
2023-06-19T17:50:10.725Z,28.51
2023-06-19T17:53:12.743Z,28.36
2023-06-19T17:56:15.426Z,28.36
2023-06-19T17:59:21.167Z,28.33
2023-06-19T18:02:23.051Z,28.18
2023-06-19T18:05:51.580Z,27.94
2023-06-19T18:08:53.431Z,27.56
2023-06-19T18:12:20.242Z,27.29
2023-06-19T18:15:22.254Z,27.24
2023-06-19T18:18:49.030Z,27.23
2023-06-19T18:22:17.660Z,27.22
2023-06-19T18:25:44.938Z,26.79
2023-06-19T18:28:46.798Z,26.35
2023-06-19T18:31:51.373Z,26.31
2023-06-19T18:34:55.133Z,26.57
2023-06-19T18:38:23.689Z,26.36
2023-06-19T18:41:50.663Z,26.32
2023-06-19T18:45:17.661Z,26.23
2023-06-19T18:48:45.026Z,26.15
2023-06-19T18:52:11.728Z,25.87
2023-06-19T18:55:15.281Z,25.66
2023-06-19T18:58:42.176Z,25.54
2023-06-19T19:02:09.711Z,25.48
2023-06-19T19:05:37.439Z,25.48
2023-06-19T19:09:04.274Z,25.39
2023-06-19T19:12:10.886Z,25.37
2023-06-19T19:15:12.808Z,25.22
2023-06-19T19:18:14.858Z,25.22
2023-06-19T19:21:42.145Z,24.97
2023-06-19T19:25:05.782Z,25.01
2023-06-19T19:28:14.695Z,24.91
2023-06-19T19:31:16.574Z,24.88
2023-06-19T19:34:43.005Z,24.74
2023-06-19T19:38:09.846Z,24.73
2023-06-19T19:41:36.943Z,24.43
2023-06-19T19:45:06.724Z,24.34
2023-06-19T19:48:33.862Z,24.06
2023-06-19T19:51:36.860Z,24.04
2023-06-19T19:55:06.665Z,24.20
2023-06-19T19:58:09.039Z,24.02
2023-06-19T20:01:37.776Z,24.26
2023-06-19T20:05:04.989Z,24.13
2023-06-19T20:08:31.952Z,23.86
2023-06-19T20:11:35.800Z,23.83
2023-06-19T20:15:05.069Z,23.70
2023-06-19T20:18:58.738Z,23.65
2023-06-19T20:22:25.863Z,23.59
2023-06-19T20:25:52.985Z,23.44
2023-06-19T20:29:24.841Z,23.38
2023-06-19T20:32:28.404Z,23.49
2023-06-19T20:35:32.393Z,23.25
2023-06-19T20:38:37.632Z,23.09
2023-06-19T20:41:49.557Z,23.24
2023-06-19T20:45:16.623Z,23.09
2023-06-19T20:48:44.033Z,22.88
2023-06-19T20:52:12.670Z,22.95
2023-06-19T20:58:45.182Z,22.99
2023-06-19T21:01:48.384Z,22.91
2023-06-19T21:04:51.676Z,23.02
2023-06-19T21:07:57.093Z,22.79
2023-06-19T21:11:24.776Z,22.83
2023-06-19T21:14:54.590Z,22.81
2023-06-19T21:18:22.689Z,22.70
2023-06-19T21:21:49.670Z,22.72
2023-06-19T21:25:17.916Z,23.40
2023-06-19T21:28:20.024Z,23.67
2023-06-19T21:31:23.194Z,23.83
2023-06-19T21:34:51.046Z,23.87
2023-06-19T21:38:17.706Z,23.86
2023-06-19T21:41:46.622Z,23.55
2023-06-19T21:45:13.854Z,23.27
2023-06-19T21:48:35.594Z,23.40
2023-06-19T21:52:03.550Z,23.19
2023-06-19T21:55:32.605Z,23.26
2023-06-19T21:59:00.991Z,23.10
2023-06-19T22:02:30.829Z,23.05
2023-06-19T22:06:23.766Z,23.09
2023-06-19T22:09:51.167Z,23.05
2023-06-19T22:12:54.356Z,23.05
2023-06-19T22:16:24.711Z,22.77
2023-06-19T22:19:28.554Z,23.04
2023-06-19T22:22:56.283Z,23.12
2023-06-19T22:25:58.804Z,22.92
2023-06-19T22:29:04.886Z,22.92
2023-06-19T22:32:08.620Z,23.08
2023-06-19T22:35:10.920Z,22.90
2023-06-19T22:38:13.540Z,22.90
2023-06-19T22:41:15.850Z,22.82
2023-06-19T22:44:17.702Z,23.03
2023-06-19T22:47:21.867Z,23.26
2023-06-19T22:50:48.745Z,23.39
2023-06-19T22:53:51.893Z,23.44
2023-06-19T22:56:54.262Z,23.36
2023-06-19T23:00:21.592Z,23.29
2023-06-19T23:03:50.027Z,23.21
2023-06-19T23:07:17.266Z,23.16
2023-06-19T23:10:19.320Z,23.35
2023-06-19T23:13:21.259Z,23.51
2023-06-19T23:16:23.266Z,23.47
2023-06-19T23:19:52.255Z,23.20
2023-06-19T23:22:54.314Z,23.13
2023-06-19T23:26:24.644Z,23.20
2023-06-19T23:29:26.671Z,23.43
2023-06-19T23:32:28.529Z,22.85
2023-06-19T23:35:31.913Z,22.60
2023-06-19T23:38:35.506Z,22.61
2023-06-19T23:42:02.506Z,22.42
2023-06-19T23:45:30.397Z,22.25
2023-06-19T23:48:32.915Z,21.96
2023-06-19T23:52:01.970Z,21.93
2023-06-19T23:55:04.741Z,21.84
2023-06-19T23:58:32.072Z,21.66
